sensor_id;sensor_type;location;lat;lon;timestamp;temperature;humidity
51725;DHT22;37801;53.224;6.552;2022-11-03T00:01:38;11.30;79.30
51725;DHT22;37801;53.224;6.552;2022-11-03T00:04:06;11.30;82.60
51725;DHT22;37801;53.224;6.552;2022-11-03T00:06:32;11.30;78.70
51725;DHT22;37801;53.224;6.552;2022-11-03T00:09:00;11.30;78.40
51725;DHT22;37801;53.224;6.552;2022-11-03T00:11:26;11.30;80.80
51725;DHT22;37801;53.224;6.552;2022-11-03T00:13:52;11.30;84.20
51725;DHT22;37801;53.224;6.552;2022-11-03T00:16:17;11.30;79.60
51725;DHT22;37801;53.224;6.552;2022-11-03T00:18:43;11.30;77.40
51725;DHT22;37801;53.224;6.552;2022-11-03T00:21:11;11.30;74.80
51725;DHT22;37801;53.224;6.552;2022-11-03T00:23:39;11.40;77.30
51725;DHT22;37801;53.224;6.552;2022-11-03T00:26:12;11.40;76.20
51725;DHT22;37801;53.224;6.552;2022-11-03T00:28:40;11.40;82.80
51725;DHT22;37801;53.224;6.552;2022-11-03T00:33:40;11.40;80.70
51725;DHT22;37801;53.224;6.552;2022-11-03T00:36:08;11.30;75.90
51725;DHT22;37801;53.224;6.552;2022-11-03T00:38:34;11.40;76.80
51725;DHT22;37801;53.224;6.552;2022-11-03T00:41:03;11.30;76.40
51725;DHT22;37801;53.224;6.552;2022-11-03T00:43:31;11.30;78.50
51725;DHT22;37801;53.224;6.552;2022-11-03T00:45:57;11.30;78.30
51725;DHT22;37801;53.224;6.552;2022-11-03T00:48:23;11.20;76.40
51725;DHT22;37801;53.224;6.552;2022-11-03T00:51:11;11.20;79.50
51725;DHT22;37801;53.224;6.552;2022-11-03T00:53:49;11.20;80.40
51725;DHT22;37801;53.224;6.552;2022-11-03T00:56:21;11.20;84.00
51725;DHT22;37801;53.224;6.552;2022-11-03T00:58:47;11.20;81.50
51725;DHT22;37801;53.224;6.552;2022-11-03T01:01:16;11.10;77.60
51725;DHT22;37801;53.224;6.552;2022-11-03T01:03:44;11.20;78.00
51725;DHT22;37801;53.224;6.552;2022-11-03T01:06:28;11.20;83.70
51725;DHT22;37801;53.224;6.552;2022-11-03T01:09:14;11.20;78.60
51725;DHT22;37801;53.224;6.552;2022-11-03T01:11:40;11.20;80.30
51725;DHT22;37801;53.224;6.552;2022-11-03T01:14:14;11.20;86.40
51725;DHT22;37801;53.224;6.552;2022-11-03T01:16:40;11.20;78.50
51725;DHT22;37801;53.224;6.552;2022-11-03T01:19:06;11.10;78.60
51725;DHT22;37801;53.224;6.552;2022-11-03T01:21:32;11.10;80.20
51725;DHT22;37801;53.224;6.552;2022-11-03T01:24:03;11.10;82.10
51725;DHT22;37801;53.224;6.552;2022-11-03T01:26:28;11.10;84.60
51725;DHT22;37801;53.224;6.552;2022-11-03T01:28:54;11.10;80.20
51725;DHT22;37801;53.224;6.552;2022-11-03T01:31:22;11.10;81.10
51725;DHT22;37801;53.224;6.552;2022-11-03T01:33:50;11.10;83.80
51725;DHT22;37801;53.224;6.552;2022-11-03T01:36:16;11.20;80.40
51725;DHT22;37801;53.224;6.552;2022-11-03T01:38:42;11.10;80.00
51725;DHT22;37801;53.224;6.552;2022-11-03T01:41:15;11.10;82.30
51725;DHT22;37801;53.224;6.552;2022-11-03T01:43:41;11.10;79.90
51725;DHT22;37801;53.224;6.552;2022-11-03T01:48:34;11.10;86.40
51725;DHT22;37801;53.224;6.552;2022-11-03T01:51:03;11.10;80.20
51725;DHT22;37801;53.224;6.552;2022-11-03T01:53:31;11.10;79.00
51725;DHT22;37801;53.224;6.552;2022-11-03T01:55:57;11.10;87.30
51725;DHT22;37801;53.224;6.552;2022-11-03T01:58:35;11.10;84.30
51725;DHT22;37801;53.224;6.552;2022-11-03T02:01:02;11.00;83.90
51725;DHT22;37801;53.224;6.552;2022-11-03T02:03:32;11.00;81.50
51725;DHT22;37801;53.224;6.552;2022-11-03T02:05:59;11.00;84.50
51725;DHT22;37801;53.224;6.552;2022-11-03T02:08:44;11.00;88.30
51725;DHT22;37801;53.224;6.552;2022-11-03T02:11:12;11.00;90.30
51725;DHT22;37801;53.224;6.552;2022-11-03T02:13:56;11.00;83.90
51725;DHT22;37801;53.224;6.552;2022-11-03T02:16:23;11.00;81.50
51725;DHT22;37801;53.224;6.552;2022-11-03T02:18:50;11.00;85.90
51725;DHT22;37801;53.224;6.552;2022-11-03T02:21:29;11.00;87.80
51725;DHT22;37801;53.224;6.552;2022-11-03T02:24:26;11.00;87.00
51725;DHT22;37801;53.224;6.552;2022-11-03T02:26:55;11.00;85.10
51725;DHT22;37801;53.224;6.552;2022-11-03T02:29:22;11.00;85.90
51725;DHT22;37801;53.224;6.552;2022-11-03T02:32:01;11.00;85.00
51725;DHT22;37801;53.224;6.552;2022-11-03T02:34:47;11.00;86.70
51725;DHT22;37801;53.224;6.552;2022-11-03T02:37:17;11.00;88.40
51725;DHT22;37801;53.224;6.552;2022-11-03T02:39:58;11.00;89.40
51725;DHT22;37801;53.224;6.552;2022-11-03T02:42:25;11.00;87.40
51725;DHT22;37801;53.224;6.552;2022-11-03T02:44:53;11.00;89.30
51725;DHT22;37801;53.224;6.552;2022-11-03T02:47:22;11.00;88.90
51725;DHT22;37801;53.224;6.552;2022-11-03T02:49:53;11.00;89.60
51725;DHT22;37801;53.224;6.552;2022-11-03T02:52:41;11.00;91.20
51725;DHT22;37801;53.224;6.552;2022-11-03T02:57:57;11.00;91.20
51725;DHT22;37801;53.224;6.552;2022-11-03T03:00:25;11.00;91.00
51725;DHT22;37801;53.224;6.552;2022-11-03T03:02:58;11.00;94.30
51725;DHT22;37801;53.224;6.552;2022-11-03T03:05:28;11.00;91.60
51725;DHT22;37801;53.224;6.552;2022-11-03T03:08:01;11.00;93.90
51725;DHT22;37801;53.224;6.552;2022-11-03T03:10:44;11.00;92.30
51725;DHT22;37801;53.224;6.552;2022-11-03T03:13:14;11.00;90.90
51725;DHT22;37801;53.224;6.552;2022-11-03T03:15:47;11.00;91.70
51725;DHT22;37801;53.224;6.552;2022-11-03T03:18:28;11.00;91.90
51725;DHT22;37801;53.224;6.552;2022-11-03T03:21:11;11.00;93.30
51725;DHT22;37801;53.224;6.552;2022-11-03T03:23:44;11.00;97.00
51725;DHT22;37801;53.224;6.552;2022-11-03T03:26:25;11.00;93.10
51725;DHT22;37801;53.224;6.552;2022-11-03T03:29:00;11.00;91.60
51725;DHT22;37801;53.224;6.552;2022-11-03T03:31:31;11.00;93.70
51725;DHT22;37801;53.224;6.552;2022-11-03T03:33:59;11.00;94.10
51725;DHT22;37801;53.224;6.552;2022-11-03T03:36:26;11.00;92.90
51725;DHT22;37801;53.224;6.552;2022-11-03T03:39:01;11.10;94.00
51725;DHT22;37801;53.224;6.552;2022-11-03T03:41:28;11.10;92.70
51725;DHT22;37801;53.224;6.552;2022-11-03T03:43:59;11.10;93.80
51725;DHT22;37801;53.224;6.552;2022-11-03T03:46:30;11.10;94.00
51725;DHT22;37801;53.224;6.552;2022-11-03T03:48:56;11.10;93.70
51725;DHT22;37801;53.224;6.552;2022-11-03T03:51:24;11.10;93.50
51725;DHT22;37801;53.224;6.552;2022-11-03T03:53:52;11.10;93.70
51725;DHT22;37801;53.224;6.552;2022-11-03T03:56:22;11.20;92.70
51725;DHT22;37801;53.224;6.552;2022-11-03T03:58:50;11.10;93.60
51725;DHT22;37801;53.224;6.552;2022-11-03T04:01:15;11.20;94.30
51725;DHT22;37801;53.224;6.552;2022-11-03T04:03:41;11.10;93.10
51725;DHT22;37801;53.224;6.552;2022-11-03T04:06:07;11.10;94.40
51725;DHT22;37801;53.224;6.552;2022-11-03T04:08:33;11.10;94.10
51725;DHT22;37801;53.224;6.552;2022-11-03T04:10:59;11.10;94.40
51725;DHT22;37801;53.224;6.552;2022-11-03T04:14:00;11.10;93.30
51725;DHT22;37801;53.224;6.552;2022-11-03T04:16:44;11.00;95.40
51725;DHT22;37801;53.224;6.552;2022-11-03T04:19:28;11.10;94.40
51725;DHT22;37801;53.224;6.552;2022-11-03T04:22:12;11.10;93.80
51725;DHT22;37801;53.224;6.552;2022-11-03T04:24:48;11.10;95.60
51725;DHT22;37801;53.224;6.552;2022-11-03T04:27:35;11.10;94.70
51725;DHT22;37801;53.224;6.552;2022-11-03T04:30:15;11.10;95.20
51725;DHT22;37801;53.224;6.552;2022-11-03T04:32:42;11.10;94.40
51725;DHT22;37801;53.224;6.552;2022-11-03T04:35:19;11.10;95.10
51725;DHT22;37801;53.224;6.552;2022-11-03T04:38:01;11.10;95.70
51725;DHT22;37801;53.224;6.552;2022-11-03T04:40:28;11.10;96.90
51725;DHT22;37801;53.224;6.552;2022-11-03T04:42:54;11.10;95.50
51725;DHT22;37801;53.224;6.552;2022-11-03T04:45:25;11.10;96.20
51725;DHT22;37801;53.224;6.552;2022-11-03T04:47:52;11.10;98.70
51725;DHT22;37801;53.224;6.552;2022-11-03T04:50:20;11.20;98.50
51725;DHT22;37801;53.224;6.552;2022-11-03T04:53:13;11.20;97.40
51725;DHT22;37801;53.224;6.552;2022-11-03T04:55:40;11.20;95.80
51725;DHT22;37801;53.224;6.552;2022-11-03T04:58:22;11.20;97.50
51725;DHT22;37801;53.224;6.552;2022-11-03T05:00:51;11.10;96.40
51725;DHT22;37801;53.224;6.552;2022-11-03T05:03:22;11.20;95.80
51725;DHT22;37801;53.224;6.552;2022-11-03T05:05:49;11.20;96.90
51725;DHT22;37801;53.224;6.552;2022-11-03T05:08:16;11.20;96.70
51725;DHT22;37801;53.224;6.552;2022-11-03T05:10:43;11.20;96.60
51725;DHT22;37801;53.224;6.552;2022-11-03T05:13:22;11.20;97.30
51725;DHT22;37801;53.224;6.552;2022-11-03T05:15:50;11.20;97.60
51725;DHT22;37801;53.224;6.552;2022-11-03T05:18:17;11.20;98.10
51725;DHT22;37801;53.224;6.552;2022-11-03T05:20:48;11.20;97.90
51725;DHT22;37801;53.224;6.552;2022-11-03T05:23:14;11.10;96.60
51725;DHT22;37801;53.224;6.552;2022-11-03T05:25:47;11.20;97.00
51725;DHT22;37801;53.224;6.552;2022-11-03T05:30:48;11.20;97.70
51725;DHT22;37801;53.224;6.552;2022-11-03T05:33:31;11.10;98.10
51725;DHT22;37801;53.224;6.552;2022-11-03T05:36:02;11.20;99.10
51725;DHT22;37801;53.224;6.552;2022-11-03T05:38:32;11.20;98.90
51725;DHT22;37801;53.224;6.552;2022-11-03T05:40:58;11.20;98.30
51725;DHT22;37801;53.224;6.552;2022-11-03T05:43:25;11.10;98.40
51725;DHT22;37801;53.224;6.552;2022-11-03T05:45:54;11.20;98.30
51725;DHT22;37801;53.224;6.552;2022-11-03T05:48:34;11.20;99.90
51725;DHT22;37801;53.224;6.552;2022-11-03T05:51:20;11.10;98.10
51725;DHT22;37801;53.224;6.552;2022-11-03T05:53:50;11.10;98.50
51725;DHT22;37801;53.224;6.552;2022-11-03T05:56:21;11.10;98.70
51725;DHT22;37801;53.224;6.552;2022-11-03T05:58:50;11.10;98.50
51725;DHT22;37801;53.224;6.552;2022-11-03T06:01:31;11.10;98.70
51725;DHT22;37801;53.224;6.552;2022-11-03T06:04:18;11.10;99.90
51725;DHT22;37801;53.224;6.552;2022-11-03T06:07:00;11.10;99.90
51725;DHT22;37801;53.224;6.552;2022-11-03T06:09:26;11.10;99.50
51725;DHT22;37801;53.224;6.552;2022-11-03T06:11:56;11.10;98.80
51725;DHT22;37801;53.224;6.552;2022-11-03T06:14:25;11.10;99.30
51725;DHT22;37801;53.224;6.552;2022-11-03T06:17:04;11.10;98.70
51725;DHT22;37801;53.224;6.552;2022-11-03T06:19:37;11.10;99.90
51725;DHT22;37801;53.224;6.552;2022-11-03T06:22:26;11.10;99.90
51725;DHT22;37801;53.224;6.552;2022-11-03T06:25:09;11.00;99.90
51725;DHT22;37801;53.224;6.552;2022-11-03T06:27:37;11.00;99.90
51725;DHT22;37801;53.224;6.552;2022-11-03T06:30:27;11.10;99.90
51725;DHT22;37801;53.224;6.552;2022-11-03T06:33:23;11.00;99.90
51725;DHT22;37801;53.224;6.552;2022-11-03T06:35:52;11.10;99.90
51725;DHT22;37801;53.224;6.552;2022-11-03T06:38:21;11.10;99.90
51725;DHT22;37801;53.224;6.552;2022-11-03T06:40:49;11.10;99.90
51725;DHT22;37801;53.224;6.552;2022-11-03T06:43:22;11.10;99.90
51725;DHT22;37801;53.224;6.552;2022-11-03T06:45:51;11.10;99.90
51725;DHT22;37801;53.224;6.552;2022-11-03T06:48:22;11.10;99.90
51725;DHT22;37801;53.224;6.552;2022-11-03T06:50:48;11.10;99.90
51725;DHT22;37801;53.224;6.552;2022-11-03T06:53:20;11.10;99.90
51725;DHT22;37801;53.224;6.552;2022-11-03T06:55:47;11.10;98.80
51725;DHT22;37801;53.224;6.552;2022-11-03T06:58:18;11.10;99.90
51725;DHT22;37801;53.224;6.552;2022-11-03T07:00:44;11.10;99.90
51725;DHT22;37801;53.224;6.552;2022-11-03T07:03:15;11.00;99.90
51725;DHT22;37801;53.224;6.552;2022-11-03T07:05:42;11.10;99.90
51725;DHT22;37801;53.224;6.552;2022-11-03T07:08:35;11.10;99.90
51725;DHT22;37801;53.224;6.552;2022-11-03T07:13:45;11.20;99.90
51725;DHT22;37801;53.224;6.552;2022-11-03T07:16:17;11.20;99.90
51725;DHT22;37801;53.224;6.552;2022-11-03T07:18:44;11.20;99.90
51725;DHT22;37801;53.224;6.552;2022-11-03T07:21:33;11.20;99.90
51725;DHT22;37801;53.224;6.552;2022-11-03T07:24:02;11.30;99.90
51725;DHT22;37801;53.224;6.552;2022-11-03T07:26:31;11.30;99.90
51725;DHT22;37801;53.224;6.552;2022-11-03T07:28:59;11.30;99.90
51725;DHT22;37801;53.224;6.552;2022-11-03T07:31:25;11.30;99.90
51725;DHT22;37801;53.224;6.552;2022-11-03T07:33:57;11.30;99.40
51725;DHT22;37801;53.224;6.552;2022-11-03T07:36:26;11.30;98.70
51725;DHT22;37801;53.224;6.552;2022-11-03T07:38:53;11.40;98.60
51725;DHT22;37801;53.224;6.552;2022-11-03T07:41:27;11.40;99.90
51725;DHT22;37801;53.224;6.552;2022-11-03T07:43:58;11.40;98.50
51725;DHT22;37801;53.224;6.552;2022-11-03T07:46:25;11.40;99.90
51725;DHT22;37801;53.224;6.552;2022-11-03T07:48:54;11.40;99.00
51725;DHT22;37801;53.224;6.552;2022-11-03T07:51:32;11.50;98.30
51725;DHT22;37801;53.224;6.552;2022-11-03T07:54:09;11.50;99.40
51725;DHT22;37801;53.224;6.552;2022-11-03T07:56:49;11.50;99.60
51725;DHT22;37801;53.224;6.552;2022-11-03T07:59:20;11.60;99.20
51725;DHT22;37801;53.224;6.552;2022-11-03T08:01:53;11.60;99.90
51725;DHT22;37801;53.224;6.552;2022-11-03T08:04:35;11.60;99.90
51725;DHT22;37801;53.224;6.552;2022-11-03T08:07:01;11.70;99.90
51725;DHT22;37801;53.224;6.552;2022-11-03T08:09:27;11.70;99.90
51725;DHT22;37801;53.224;6.552;2022-11-03T08:11:52;11.80;99.90
51725;DHT22;37801;53.224;6.552;2022-11-03T08:14:18;11.80;98.80
51725;DHT22;37801;53.224;6.552;2022-11-03T08:16:44;11.80;99.90
51725;DHT22;37801;53.224;6.552;2022-11-03T08:19:10;11.80;99.00
51725;DHT22;37801;53.224;6.552;2022-11-03T08:21:36;11.90;99.90
51725;DHT22;37801;53.224;6.552;2022-11-03T08:24:01;11.90;99.70
51725;DHT22;37801;53.224;6.552;2022-11-03T08:26:27;11.90;98.80
51725;DHT22;37801;53.224;6.552;2022-11-03T08:28:53;12.00;99.90
51725;DHT22;37801;53.224;6.552;2022-11-03T08:31:19;12.10;99.90
51725;DHT22;37801;53.224;6.552;2022-11-03T08:33:44;12.10;99.80
51725;DHT22;37801;53.224;6.552;2022-11-03T08:36:11;12.10;99.90
51725;DHT22;37801;53.224;6.552;2022-11-03T08:38:37;12.10;99.90
51725;DHT22;37801;53.224;6.552;2022-11-03T08:41:03;12.20;99.90
51725;DHT22;37801;53.224;6.552;2022-11-03T08:43:29;12.20;99.90
51725;DHT22;37801;53.224;6.552;2022-11-03T08:45:55;12.30;99.90
51725;DHT22;37801;53.224;6.552;2022-11-03T08:48:21;12.40;99.90
51725;DHT22;37801;53.224;6.552;2022-11-03T08:50:48;12.40;99.90
51725;DHT22;37801;53.224;6.552;2022-11-03T08:53:19;12.40;99.60
51725;DHT22;37801;53.224;6.552;2022-11-03T08:55:45;12.40;99.90
51725;DHT22;37801;53.224;6.552;2022-11-03T08:58:11;12.50;99.10
51725;DHT22;37801;53.224;6.552;2022-11-03T09:00:36;12.50;99.60
51725;DHT22;37801;53.224;6.552;2022-11-03T09:03:02;12.50;98.00
51725;DHT22;37801;53.224;6.552;2022-11-03T09:05:28;12.50;99.90
51725;DHT22;37801;53.224;6.552;2022-11-03T09:07:54;12.60;99.90
51725;DHT22;37801;53.224;6.552;2022-11-03T09:10:19;12.60;99.90
51725;DHT22;37801;53.224;6.552;2022-11-03T09:12:45;12.60;98.60
51725;DHT22;37801;53.224;6.552;2022-11-03T09:15:11;12.60;99.90
51725;DHT22;37801;53.224;6.552;2022-11-03T09:17:37;12.60;98.70
51725;DHT22;37801;53.224;6.552;2022-11-03T09:20:04;12.70;99.50
51725;DHT22;37801;53.224;6.552;2022-11-03T09:22:29;12.70;99.90
51725;DHT22;37801;53.224;6.552;2022-11-03T09:24:55;12.70;99.90
51725;DHT22;37801;53.224;6.552;2022-11-03T09:27:21;12.70;99.30
51725;DHT22;37801;53.224;6.552;2022-11-03T09:29:47;12.80;99.60
51725;DHT22;37801;53.224;6.552;2022-11-03T09:32:13;12.80;99.60
51725;DHT22;37801;53.224;6.552;2022-11-03T09:34:39;12.80;98.90
51725;DHT22;37801;53.224;6.552;2022-11-03T09:37:05;12.90;98.70
51725;DHT22;37801;53.224;6.552;2022-11-03T09:39:30;12.90;99.50
51725;DHT22;37801;53.224;6.552;2022-11-03T09:41:56;12.90;98.60
51725;DHT22;37801;53.224;6.552;2022-11-03T09:44:23;13.00;99.90
51725;DHT22;37801;53.224;6.552;2022-11-03T09:46:49;13.00;99.90
51725;DHT22;37801;53.224;6.552;2022-11-03T09:49:16;13.00;99.90
51725;DHT22;37801;53.224;6.552;2022-11-03T09:51:42;13.10;98.90
51725;DHT22;37801;53.224;6.552;2022-11-03T09:54:14;13.10;98.10
51725;DHT22;37801;53.224;6.552;2022-11-03T09:56:41;13.10;97.60
51725;DHT22;37801;53.224;6.552;2022-11-03T09:59:16;13.20;96.10
51725;DHT22;37801;53.224;6.552;2022-11-03T10:01:43;13.30;99.10
51725;DHT22;37801;53.224;6.552;2022-11-03T10:04:13;13.20;98.70
51725;DHT22;37801;53.224;6.552;2022-11-03T10:06:39;13.30;97.70
51725;DHT22;37801;53.224;6.552;2022-11-03T10:09:06;13.40;95.30
51725;DHT22;37801;53.224;6.552;2022-11-03T10:11:36;13.40;97.80
51725;DHT22;37801;53.224;6.552;2022-11-03T10:14:02;13.50;95.70
51725;DHT22;37801;53.224;6.552;2022-11-03T10:16:28;13.60;94.50
51725;DHT22;37801;53.224;6.552;2022-11-03T10:18:54;13.60;95.20
51725;DHT22;37801;53.224;6.552;2022-11-03T10:21:24;13.70;93.60
51725;DHT22;37801;53.224;6.552;2022-11-03T10:23:51;13.70;93.90
51725;DHT22;37801;53.224;6.552;2022-11-03T10:26:19;13.80;93.60
51725;DHT22;37801;53.224;6.552;2022-11-03T10:28:58;13.80;92.90
51725;DHT22;37801;53.224;6.552;2022-11-03T10:31:36;13.80;92.90
51725;DHT22;37801;53.224;6.552;2022-11-03T10:34:04;13.90;92.50
51725;DHT22;37801;53.224;6.552;2022-11-03T10:36:32;13.90;92.20
51725;DHT22;37801;53.224;6.552;2022-11-03T10:38:58;13.90;93.20
51725;DHT22;37801;53.224;6.552;2022-11-03T10:41:27;13.90;91.40
51725;DHT22;37801;53.224;6.552;2022-11-03T10:44:17;13.90;92.90
51725;DHT22;37801;53.224;6.552;2022-11-03T10:47:01;13.90;91.50
51725;DHT22;37801;53.224;6.552;2022-11-03T10:49:29;14.00;91.50
51725;DHT22;37801;53.224;6.552;2022-11-03T10:52:00;14.00;91.60
51725;DHT22;37801;53.224;6.552;2022-11-03T10:54:30;14.00;90.80
51725;DHT22;37801;53.224;6.552;2022-11-03T10:57:00;14.10;91.70
51725;DHT22;37801;53.224;6.552;2022-11-03T10:59:35;14.10;92.50
51725;DHT22;37801;53.224;6.552;2022-11-03T11:02:03;14.20;90.20
51725;DHT22;37801;53.224;6.552;2022-11-03T11:04:34;14.20;90.60
51725;DHT22;37801;53.224;6.552;2022-11-03T11:07:00;14.30;83.50
51725;DHT22;37801;53.224;6.552;2022-11-03T11:09:27;14.30;85.00
51725;DHT22;37801;53.224;6.552;2022-11-03T11:12:19;14.30;88.30
51725;DHT22;37801;53.224;6.552;2022-11-03T11:17:40;14.40;80.00
51725;DHT22;37801;53.224;6.552;2022-11-03T11:22:46;14.40;85.50
51725;DHT22;37801;53.224;6.552;2022-11-03T11:25:12;14.40;80.90
51725;DHT22;37801;53.224;6.552;2022-11-03T11:33:11;14.50;77.70
51725;DHT22;37801;53.224;6.552;2022-11-03T11:41:06;14.80;68.10
51725;DHT22;37801;53.224;6.552;2022-11-03T11:43:32;14.80;73.80
51725;DHT22;37801;53.224;6.552;2022-11-03T11:49:14;14.70;69.40
51725;DHT22;37801;53.224;6.552;2022-11-03T11:51:40;14.70;63.80
51725;DHT22;37801;53.224;6.552;2022-11-03T11:54:11;14.70;65.10
51725;DHT22;37801;53.224;6.552;2022-11-03T11:56:43;14.60;60.80
51725;DHT22;37801;53.224;6.552;2022-11-03T11:59:20;14.60;64.60
51725;DHT22;37801;53.224;6.552;2022-11-03T12:01:52;14.60;66.10
51725;DHT22;37801;53.224;6.552;2022-11-03T12:04:27;14.70;64.10
51725;DHT22;37801;53.224;6.552;2022-11-03T12:06:55;14.70;69.20
51725;DHT22;37801;53.224;6.552;2022-11-03T12:09:26;14.70;58.40
51725;DHT22;37801;53.224;6.552;2022-11-03T12:11:57;14.70;66.00
51725;DHT22;37801;53.224;6.552;2022-11-03T12:14:33;14.80;62.20
51725;DHT22;37801;53.224;6.552;2022-11-03T12:19:47;14.80;57.00
51725;DHT22;37801;53.224;6.552;2022-11-03T12:27:18;14.80;55.20
51725;DHT22;37801;53.224;6.552;2022-11-03T12:29:44;14.80;60.30
51725;DHT22;37801;53.224;6.552;2022-11-03T12:32:09;14.80;65.20
51725;DHT22;37801;53.224;6.552;2022-11-03T12:34:35;14.80;56.10
51725;DHT22;37801;53.224;6.552;2022-11-03T12:37:01;14.80;61.70
51725;DHT22;37801;53.224;6.552;2022-11-03T12:39:26;14.80;56.00
51725;DHT22;37801;53.224;6.552;2022-11-03T12:41:52;14.80;55.30
51725;DHT22;37801;53.224;6.552;2022-11-03T12:44:18;14.70;52.90
51725;DHT22;37801;53.224;6.552;2022-11-03T12:46:43;14.70;59.80
51725;DHT22;37801;53.224;6.552;2022-11-03T12:49:09;14.70;48.10
51725;DHT22;37801;53.224;6.552;2022-11-03T12:51:35;14.70;45.10
51725;DHT22;37801;53.224;6.552;2022-11-03T12:54:00;14.70;56.20
51725;DHT22;37801;53.224;6.552;2022-11-03T12:56:26;14.70;51.70
51725;DHT22;37801;53.224;6.552;2022-11-03T12:58:52;14.70;48.60
51725;DHT22;37801;53.224;6.552;2022-11-03T13:01:17;14.70;48.00
51725;DHT22;37801;53.224;6.552;2022-11-03T13:03:43;14.70;44.60
51725;DHT22;37801;53.224;6.552;2022-11-03T13:06:09;14.70;46.20
51725;DHT22;37801;53.224;6.552;2022-11-03T13:08:36;14.80;47.50
51725;DHT22;37801;53.224;6.552;2022-11-03T13:11:02;14.70;52.10
51725;DHT22;37801;53.224;6.552;2022-11-03T13:13:28;14.80;46.90
51725;DHT22;37801;53.224;6.552;2022-11-03T13:15:55;14.80;47.50
51725;DHT22;37801;53.224;6.552;2022-11-03T13:18:21;14.80;57.60
51725;DHT22;37801;53.224;6.552;2022-11-03T13:20:47;14.80;47.20
51725;DHT22;37801;53.224;6.552;2022-11-03T13:23:12;14.80;48.40
51725;DHT22;37801;53.224;6.552;2022-11-03T13:25:38;14.80;47.90
51725;DHT22;37801;53.224;6.552;2022-11-03T13:28:04;14.90;50.70
51725;DHT22;37801;53.224;6.552;2022-11-03T13:30:30;14.80;47.20
51725;DHT22;37801;53.224;6.552;2022-11-03T13:32:58;14.90;47.90
51725;DHT22;37801;53.224;6.552;2022-11-03T13:35:24;14.90;45.00
51725;DHT22;37801;53.224;6.552;2022-11-03T13:37:50;14.90;54.60
51725;DHT22;37801;53.224;6.552;2022-11-03T13:40:16;14.80;47.40
51725;DHT22;37801;53.224;6.552;2022-11-03T13:42:41;14.80;48.90
51725;DHT22;37801;53.224;6.552;2022-11-03T13:45:08;14.80;41.80
51725;DHT22;37801;53.224;6.552;2022-11-03T13:47:34;14.80;42.60
51725;DHT22;37801;53.224;6.552;2022-11-03T13:50:00;14.80;44.10
51725;DHT22;37801;53.224;6.552;2022-11-03T13:52:27;14.80;47.40
51725;DHT22;37801;53.224;6.552;2022-11-03T13:54:53;14.80;53.80
51725;DHT22;37801;53.224;6.552;2022-11-03T13:57:19;14.80;49.20
51725;DHT22;37801;53.224;6.552;2022-11-03T13:59:45;14.70;46.20
51725;DHT22;37801;53.224;6.552;2022-11-03T14:02:11;14.70;59.10
51725;DHT22;37801;53.224;6.552;2022-11-03T14:04:38;14.60;45.00
51725;DHT22;37801;53.224;6.552;2022-11-03T14:07:07;14.60;58.60
51725;DHT22;37801;53.224;6.552;2022-11-03T14:09:32;14.60;53.20
51725;DHT22;37801;53.224;6.552;2022-11-03T14:11:58;14.60;50.30
51725;DHT22;37801;53.224;6.552;2022-11-03T14:14:43;14.60;53.80
51725;DHT22;37801;53.224;6.552;2022-11-03T14:17:08;14.50;48.20
51725;DHT22;37801;53.224;6.552;2022-11-03T14:19:34;14.50;46.50
51725;DHT22;37801;53.224;6.552;2022-11-03T14:22:01;14.40;56.00
51725;DHT22;37801;53.224;6.552;2022-11-03T14:24:26;14.40;58.20
51725;DHT22;37801;53.224;6.552;2022-11-03T14:26:52;14.40;60.50
51725;DHT22;37801;53.224;6.552;2022-11-03T14:29:18;14.40;53.70
51725;DHT22;37801;53.224;6.552;2022-11-03T14:31:44;14.40;50.50
51725;DHT22;37801;53.224;6.552;2022-11-03T14:34:10;14.40;53.20
51725;DHT22;37801;53.224;6.552;2022-11-03T14:36:35;14.40;65.20
51725;DHT22;37801;53.224;6.552;2022-11-03T14:39:01;14.30;50.50
51725;DHT22;37801;53.224;6.552;2022-11-03T14:41:27;14.30;48.40
51725;DHT22;37801;53.224;6.552;2022-11-03T14:44:11;14.30;49.10
51725;DHT22;37801;53.224;6.552;2022-11-03T14:46:37;14.30;49.60
51725;DHT22;37801;53.224;6.552;2022-11-03T14:49:03;14.20;53.00
51725;DHT22;37801;53.224;6.552;2022-11-03T14:51:29;14.20;52.50
51725;DHT22;37801;53.224;6.552;2022-11-03T14:53:55;14.10;47.40
51725;DHT22;37801;53.224;6.552;2022-11-03T14:56:22;14.10;46.60
51725;DHT22;37801;53.224;6.552;2022-11-03T14:58:48;14.10;52.90
51725;DHT22;37801;53.224;6.552;2022-11-03T15:01:17;14.10;55.90
51725;DHT22;37801;53.224;6.552;2022-11-03T15:03:44;14.10;51.70
51725;DHT22;37801;53.224;6.552;2022-11-03T15:06:10;14.10;46.50
51725;DHT22;37801;53.224;6.552;2022-11-03T15:08:36;14.10;47.40
51725;DHT22;37801;53.224;6.552;2022-11-03T15:11:03;14.10;55.20
51725;DHT22;37801;53.224;6.552;2022-11-03T15:13:30;14.10;54.70
51725;DHT22;37801;53.224;6.552;2022-11-03T15:15:55;14.10;47.10
51725;DHT22;37801;53.224;6.552;2022-11-03T15:18:21;14.10;45.00
51725;DHT22;37801;53.224;6.552;2022-11-03T15:20:47;14.10;47.10
51725;DHT22;37801;53.224;6.552;2022-11-03T15:23:12;14.10;49.90
51725;DHT22;37801;53.224;6.552;2022-11-03T15:25:38;14.10;53.00
51725;DHT22;37801;53.224;6.552;2022-11-03T15:28:04;14.10;53.10
51725;DHT22;37801;53.224;6.552;2022-11-03T15:30:29;14.00;45.10
51725;DHT22;37801;53.224;6.552;2022-11-03T15:32:55;14.00;50.50
51725;DHT22;37801;53.224;6.552;2022-11-03T15:35:22;14.00;46.30
51725;DHT22;37801;53.224;6.552;2022-11-03T15:37:48;14.00;42.70
51725;DHT22;37801;53.224;6.552;2022-11-03T15:40:15;14.00;45.90
51725;DHT22;37801;53.224;6.552;2022-11-03T15:42:41;13.90;47.60
51725;DHT22;37801;53.224;6.552;2022-11-03T15:45:09;13.90;50.80
51725;DHT22;37801;53.224;6.552;2022-11-03T15:47:34;13.90;49.20
51725;DHT22;37801;53.224;6.552;2022-11-03T15:50:01;13.90;50.90
51725;DHT22;37801;53.224;6.552;2022-11-03T15:52:26;13.80;54.70
51725;DHT22;37801;53.224;6.552;2022-11-03T15:54:52;13.80;56.50
51725;DHT22;37801;53.224;6.552;2022-11-03T15:57:18;13.80;52.20
51725;DHT22;37801;53.224;6.552;2022-11-03T15:59:43;13.80;66.30
51725;DHT22;37801;53.224;6.552;2022-11-03T16:02:09;13.70;60.20
51725;DHT22;37801;53.224;6.552;2022-11-03T16:04:35;13.70;54.70
51725;DHT22;37801;53.224;6.552;2022-11-03T16:07:00;13.70;54.70
51725;DHT22;37801;53.224;6.552;2022-11-03T16:09:26;13.70;62.40
51725;DHT22;37801;53.224;6.552;2022-11-03T16:11:52;13.60;54.90
51725;DHT22;37801;53.224;6.552;2022-11-03T16:14:18;13.60;50.60
51725;DHT22;37801;53.224;6.552;2022-11-03T16:16:43;13.60;53.00
51725;DHT22;37801;53.224;6.552;2022-11-03T16:19:09;13.60;54.10
51725;DHT22;37801;53.224;6.552;2022-11-03T16:21:35;13.60;56.00
51725;DHT22;37801;53.224;6.552;2022-11-03T16:24:02;13.60;53.20
51725;DHT22;37801;53.224;6.552;2022-11-03T16:26:28;13.60;65.90